Time;durP1;ratioP1;P1;durP2;ratioP2;P2;SDS_P1;SDS_P2;PMS_P1;PMS_P2;Temp;Humidity;BMP_temperature;BMP_pressure;BME280_temperature;BME280_humidity;BME280_pressure;Samples;Min_cycle;Max_cycle;Signal;HPM_P1;HPM_P2
2022/04/15 00:02:24;;;;;;;;;;;;;;;10.67;74.50;100657.88;5025076;28;20444;-85
2022/04/15 00:04:49;;;;;;;;;;;;;;;10.70;74.79;100660.09;5026465;28;20250;-85
2022/04/15 00:07:14;;;;;;;;;;;;;;;10.63;74.97;100659.44;5026915;28;20324;-86
2022/04/15 00:09:40;;;;;;;;;;;;;;;10.76;74.69;100658.28;5025576;28;20517;-85
2022/04/15 00:14:49;;;;;;;;;;;;;;;10.64;74.96;100654.81;5028417;28;20039;-86
2022/04/15 00:17:14;;;;;;;;;;;;;;;10.55;75.11;100660.66;5024831;28;19933;-85
2022/04/15 00:19:39;;;;;;;;;;;;;;;10.44;75.58;100658.72;5025120;28;19979;-85
2022/04/15 00:22:04;;;;;;;;;;;;;;;10.42;75.34;100658.97;5025306;28;20364;-85
2022/04/15 00:24:29;;;;;;;;;;;;;;;10.48;75.56;100662.63;5027166;28;19928;-86
2022/04/15 00:26:55;;;;;;;;;;;;;;;10.46;75.20;100659.31;5024987;28;19974;-85
2022/04/15 00:29:20;;;;;;;;;;;;;;;10.33;75.80;100663.97;5026978;28;19917;-85
2022/04/15 00:31:45;;;;;;;;;;;;;;;10.37;76.24;100661.63;5024172;28;19925;-85
2022/04/15 00:34:10;;;;;;;;;;;;;;;10.25;75.62;100654.28;5026682;28;19921;-85
2022/04/15 00:36:35;;;;;;;;;;;;;;;10.17;76.09;100657.38;5025048;28;19975;-86
2022/04/15 00:39:01;;;;;;;;;;;;;;;10.12;76.51;100660.00;5026121;28;19928;-85
2022/04/15 00:41:26;;;;;;;;;;;;;;;10.17;76.79;100654.66;5025403;28;19925;-84
2022/04/15 00:43:55;;;;;;;;;;;;;;;10.15;76.42;100656.78;5025282;28;20312;-85
2022/04/15 00:46:20;;;;;;;;;;;;;;;10.23;75.91;100661.88;5026471;28;20388;-86
2022/04/15 00:48:45;;;;;;;;;;;;;;;10.13;76.09;100659.75;5022698;28;19932;-85
2022/04/15 00:51:11;;;;;;;;;;;;;;;10.04;76.52;100658.47;5026075;28;19925;-85
2022/04/15 00:53:38;;;;;;;;;;;;;;;10.05;76.68;100660.13;5024223;28;20356;-84
2022/04/15 00:56:06;;;;;;;;;;;;;;;9.95;76.92;100660.72;5026421;28;20291;-85
2022/04/15 00:58:33;;;;;;;;;;;;;;;10.00;76.97;100662.75;5025594;28;19949;-84
2022/04/15 01:00:59;;;;;;;;;;;;;;;10.03;76.54;100659.53;5024756;28;20063;-85
2022/04/15 01:03:25;;;;;;;;;;;;;;;9.88;76.83;100666.31;5025232;28;19921;-86
2022/04/15 01:05:54;;;;;;;;;;;;;;;9.90;77.31;100656.03;5024491;28;19963;-85
2022/04/15 01:08:21;;;;;;;;;;;;;;;9.94;77.19;100653.66;5025998;28;19921;-85
2022/04/15 01:10:47;;;;;;;;;;;;;;;9.95;76.75;100666.19;5024014;28;19932;-85
2022/04/15 01:13:12;;;;;;;;;;;;;;;9.86;77.16;100663.00;5026019;28;19921;-86
2022/04/15 01:15:38;;;;;;;;;;;;;;;9.83;77.09;100662.63;5024731;28;20067;-86
2022/04/15 01:18:03;;;;;;;;;;;;;;;9.74;77.64;100664.91;5019852;28;19925;-84
2022/04/15 01:20:28;;;;;;;;;;;;;;;9.78;77.10;100676.97;5009040;28;19947;-85
2022/04/15 01:23:04;;;;;;;;;;;;;;;9.77;77.54;100680.75;5024135;28;19975;-85
2022/04/15 01:25:30;;;;;;;;;;;;;;;9.70;77.87;100675.44;5026021;28;19917;-85
2022/04/15 01:27:57;;;;;;;;;;;;;;;9.66;77.52;100675.06;5029771;28;20364;-85
2022/04/15 01:30:22;;;;;;;;;;;;;;;9.65;77.71;100681.59;5025041;28;19932;-85
2022/04/15 01:32:48;;;;;;;;;;;;;;;9.65;77.81;100676.16;5024261;28;20343;-85
2022/04/15 01:35:14;;;;;;;;;;;;;;;9.58;77.82;100673.53;5024702;28;19931;-86
2022/04/15 01:37:39;;;;;;;;;;;;;;;9.57;77.38;100676.50;5024794;28;19936;-85
2022/04/15 01:40:06;;;;;;;;;;;;;;;9.49;78.01;100685.00;5023549;28;19921;-85
2022/04/15 01:42:32;;;;;;;;;;;;;;;9.54;78.02;100685.94;5025494;28;20173;-85
2022/04/15 01:44:57;;;;;;;;;;;;;;;9.49;78.06;100685.00;5023712;28;20280;-85
2022/04/15 01:47:22;;;;;;;;;;;;;;;9.53;78.00;100692.47;5024101;28;19921;-86
2022/04/15 01:49:47;;;;;;;;;;;;;;;9.46;77.96;100691.75;5023719;28;19956;-84
2022/04/15 01:52:12;;;;;;;;;;;;;;;9.35;78.45;100696.13;5024553;28;20438;-85
2022/04/15 01:54:37;;;;;;;;;;;;;;;9.40;78.32;100698.94;5024107;28;19925;-85
2022/04/15 01:57:03;;;;;;;;;;;;;;;9.41;78.06;100692.47;5023961;28;20370;-85
2022/04/15 01:59:28;;;;;;;;;;;;;;;9.26;78.48;100697.50;5025144;28;20364;-85
2022/04/15 02:01:54;;;;;;;;;;;;;;;9.21;78.99;100701.75;5022280;28;20436;-85
2022/04/15 02:04:29;;;;;;;;;;;;;;;9.22;79.02;100703.41;5024930;28;19921;-85
2022/04/15 02:06:54;;;;;;;;;;;;;;;9.22;78.76;100697.97;5022975;28;19932;-84
2022/04/15 02:09:19;;;;;;;;;;;;;;;9.25;78.76;100704.00;5030931;28;19917;-85
2022/04/15 02:11:45;;;;;;;;;;;;;;;9.25;78.37;100707.56;5029256;28;19986;-85
2022/04/15 02:14:10;;;;;;;;;;;;;;;9.28;78.39;100703.53;5023754;28;20014;-85
2022/04/15 02:16:36;;;;;;;;;;;;;;;9.19;78.40;100706.59;5024413;28;20445;-86
2022/04/15 02:19:01;;;;;;;;;;;;;;;9.21;78.65;100707.19;5022621;28;20374;-85
2022/04/15 02:21:26;;;;;;;;;;;;;;;9.20;78.69;100708.25;5035647;28;19925;-85
2022/04/15 02:23:52;;;;;;;;;;;;;;;9.15;78.70;100708.16;5042604;28;19927;-86
2022/04/15 02:26:17;;;;;;;;;;;;;;;9.10;78.93;100710.72;5044427;28;19952;-85
2022/04/15 02:28:42;;;;;;;;;;;;;;;9.01;79.32;100706.66;5058403;28;19974;-85
2022/04/15 02:31:07;;;;;;;;;;;;;;;8.98;79.79;100702.50;5034299;28;19921;-84
2022/04/15 02:33:32;;;;;;;;;;;;;;;9.04;79.71;100711.63;5024598;28;20275;-85
2022/04/15 02:35:57;;;;;;;;;;;;;;;9.11;78.91;100715.09;5023092;28;20188;-85
2022/04/15 02:38:23;;;;;;;;;;;;;;;9.08;79.31;100713.66;5024494;28;20036;-86
2022/04/15 02:40:48;;;;;;;;;;;;;;;9.07;79.03;100705.75;5022773;28;19937;-84
2022/04/15 02:43:14;;;;;;;;;;;;;;;9.07;78.97;100709.28;5024557;28;20363;-85
2022/04/15 02:45:39;;;;;;;;;;;;;;;8.99;79.04;100712.31;5022100;28;19921;-84
2022/04/15 02:48:05;;;;;;;;;;;;;;;8.90;78.98;100711.84;5023607;28;19929;-84
2022/04/15 02:50:30;;;;;;;;;;;;;;;8.94;79.75;100707.59;5022928;28;19928;-85
2022/04/15 02:52:55;;;;;;;;;;;;;;;8.92;79.30;100709.72;5023735;28;20012;-85
2022/04/15 02:55:21;;;;;;;;;;;;;;;8.89;79.11;100704.72;5024337;28;19921;-85
2022/04/15 02:57:46;;;;;;;;;;;;;;;8.86;79.83;100710.63;5022266;28;19929;-85
2022/04/15 03:00:12;;;;;;;;;;;;;;;8.88;79.70;100708.50;5023250;28;19928;-85
2022/04/15 03:02:38;;;;;;;;;;;;;;;8.82;79.12;100704.81;5022163;28;19979;-86
2022/04/15 03:05:03;;;;;;;;;;;;;;;8.76;80.17;100711.19;5024018;28;20303;-85
2022/04/15 03:07:29;;;;;;;;;;;;;;;8.79;79.79;100709.91;5026399;28;19921;-86
2022/04/15 03:09:54;;;;;;;;;;;;;;;8.69;80.04;100713.13;5038452;28;19935;-85
2022/04/15 03:12:19;;;;;;;;;;;;;;;8.74;80.20;100711.41;5027764;28;19943;-85
2022/04/15 03:14:44;;;;;;;;;;;;;;;8.73;80.01;100709.75;5026392;28;19925;-84
2022/04/15 03:17:11;;;;;;;;;;;;;;;8.73;79.96;100712.47;5026923;28;19929;-84
2022/04/15 03:19:37;;;;;;;;;;;;;;;8.78;80.07;100713.66;5024149;28;19921;-85
2022/04/15 03:22:02;;;;;;;;;;;;;;;8.74;80.04;100711.41;5027027;28;19987;-86
2022/04/15 03:24:27;;;;;;;;;;;;;;;8.72;79.75;100718.97;5026038;28;19917;-85
2022/04/15 03:26:52;;;;;;;;;;;;;;;8.71;79.98;100717.28;5027770;28;19921;-85
2022/04/15 03:29:18;;;;;;;;;;;;;;;8.69;79.57;100711.25;5026585;28;20373;-85
2022/04/15 03:31:43;;;;;;;;;;;;;;;8.72;80.14;100712.69;5026135;28;19953;-86
2022/04/15 03:34:08;;;;;;;;;;;;;;;8.70;79.62;100710.22;5027444;28;19921;-85
2022/04/15 03:36:34;;;;;;;;;;;;;;;8.73;80.22;100712.47;5025464;28;19918;-83
2022/04/15 03:38:59;;;;;;;;;;;;;;;8.81;79.66;100714.03;5027632;28;19976;-86
2022/04/15 03:41:24;;;;;;;;;;;;;;;8.83;79.73;100711.91;5025373;28;19983;-85
2022/04/15 03:43:50;;;;;;;;;;;;;;;8.79;78.89;100709.91;5027280;28;19921;-86
2022/04/15 03:46:15;;;;;;;;;;;;;;;8.67;79.24;100712.53;5024113;28;19925;-84
2022/04/15 03:48:41;;;;;;;;;;;;;;;8.52;79.21;100711.84;5026952;28;19925;-83
2022/04/15 03:51:08;;;;;;;;;;;;;;;8.43;79.54;100717.81;5026099;28;20027;-84
2022/04/15 03:53:33;;;;;;;;;;;;;;;8.41;79.59;100716.16;5041396;28;20394;-85
2022/04/15 03:55:59;;;;;;;;;;;;;;;8.28;80.06;100717.13;5025916;28;19925;-86
2022/04/15 04:01:07;;;;;;;;;;;;;;;8.38;79.82;100721.22;5028150;28;20126;-85
2022/04/15 04:03:33;;;;;;;;;;;;;;;8.39;79.52;100726.44;5025704;28;19925;-85
2022/04/15 04:05:58;;;;;;;;;;;;;;;8.35;79.98;100737.97;5026779;28;19951;-83
2022/04/15 04:08:23;;;;;;;;;;;;;;;8.30;80.03;100727.78;5026778;28;19921;-85
2022/04/15 04:10:48;;;;;;;;;;;;;;;8.29;80.29;100728.84;5036811;28;19936;-86
2022/04/15 04:13:13;;;;;;;;;;;;;;;8.33;79.90;100726.50;5026665;28;19917;-85
2022/04/15 04:15:38;;;;;;;;;;;;;;;8.37;79.71;100725.00;5025044;28;19963;-85
2022/04/15 04:18:04;;;;;;;;;;;;;;;8.29;79.84;100728.84;5026719;28;19983;-85
2022/04/15 04:20:29;;;;;;;;;;;;;;;8.24;79.88;100731.38;5024521;28;19975;-85
2022/04/15 04:22:54;;;;;;;;;;;;;;;8.15;80.14;100734.44;5026535;28;20016;-85
2022/04/15 04:25:19;;;;;;;;;;;;;;;8.14;80.60;100738.19;5026007;28;20036;-84
2022/04/15 04:27:45;;;;;;;;;;;;;;;8.22;80.13;100739.78;5025331;28;20334;-85
2022/04/15 04:30:14;;;;;;;;;;;;;;;8.18;80.78;100744.00;5026024;28;19917;-85
2022/04/15 04:32:40;;;;;;;;;;;;;;;8.20;80.74;100743.78;5035912;28;19921;-85
2022/04/15 04:35:06;;;;;;;;;;;;;;;8.25;80.97;100743.94;5046257;28;20050;-85
2022/04/15 04:37:31;;;;;;;;;;;;;;;8.22;80.74;100744.38;5044128;28;20007;-86
2022/04/15 04:39:56;;;;;;;;;;;;;;;8.11;81.70;100748.66;5046291;28;19928;-86
2022/04/15 04:42:22;;;;;;;;;;;;;;;8.24;81.54;100753.13;5024729;28;19921;-84
2022/04/15 04:44:48;;;;;;;;;;;;;;;8.21;81.72;100750.88;5025645;28;20335;-85
2022/04/15 04:47:13;;;;;;;;;;;;;;;8.26;81.93;100757.28;5024929;28;20327;-85
2022/04/15 04:49:38;;;;;;;;;;;;;;;8.60;82.40;100756.13;5024684;28;20003;-85
2022/04/15 04:52:05;;;;;;;;;;;;;;;8.53;82.55;100767.03;5025754;28;20225;-84
2022/04/15 04:54:31;;;;;;;;;;;;;;;8.74;82.08;100763.06;5023814;28;20467;-84
2022/04/15 04:56:56;;;;;;;;;;;;;;;8.84;81.76;100773.41;5023739;28;19928;-85
2022/04/15 04:59:32;;;;;;;;;;;;;;;8.95;81.61;100765.53;5023775;28;19921;-85
2022/04/15 05:01:57;;;;;;;;;;;;;;;9.14;80.96;100774.50;5023553;28;19963;-84
2022/04/15 05:04:22;;;;;;;;;;;;;;;9.21;80.67;100788.00;5025521;28;20344;-85
2022/04/15 05:09:32;;;;;;;;;;;;;;;9.26;80.54;100785.41;5032355;28;19930;-85
2022/04/15 05:11:57;;;;;;;;;;;;;;;9.29;80.92;100778.69;5027682;28;19921;-85
2022/04/15 05:14:22;;;;;;;;;;;;;;;9.56;79.74;100790.00;5025180;28;20286;-86
2022/04/15 05:16:47;;;;;;;;;;;;;;;9.60;79.20;100793.09;5023851;28;19957;-86
2022/04/15 05:19:13;;;;;;;;;;;;;;;9.44;79.50;100792.69;5024974;28;19917;-85
2022/04/15 05:21:38;;;;;;;;;;;;;;;9.31;79.20;100799.19;5025160;28;20280;-86
2022/04/15 05:24:03;;;;;;;;;;;;;;;9.27;79.39;100810.75;5023919;28;19917;-84
2022/04/15 05:26:29;;;;;;;;;;;;;;;9.25;79.96;100804.69;5025075;28;19925;-86
2022/04/15 05:28:54;;;;;;;;;;;;;;;9.30;80.24;100818.44;5022886;28;19935;-86
2022/04/15 05:31:19;;;;;;;;;;;;;;;9.28;80.16;100823.28;5024921;28;19928;-85
2022/04/15 05:33:45;;;;;;;;;;;;;;;9.29;79.90;100828.50;5023771;28;19968;-85
2022/04/15 05:36:10;;;;;;;;;;;;;;;9.25;80.46;100826.47;5025366;28;19940;-83
2022/04/15 05:38:35;;;;;;;;;;;;;;;9.17;80.43;100833.88;5024048;28;19928;-85
2022/04/15 05:41:00;;;;;;;;;;;;;;;9.18;80.44;100838.25;5023731;28;19952;-85
2022/04/15 05:43:25;;;;;;;;;;;;;;;9.17;80.81;100836.59;5025787;28;19921;-85
2022/04/15 05:45:51;;;;;;;;;;;;;;;9.16;80.70;100840.38;5023152;28;19921;-86
2022/04/15 05:48:16;;;;;;;;;;;;;;;9.27;80.75;100841.50;5024505;28;19929;-85
2022/04/15 05:50:41;;;;;;;;;;;;;;;9.24;80.66;100850.13;5022303;28;20004;-85
2022/04/15 05:53:06;;;;;;;;;;;;;;;9.28;80.25;100851.31;5025011;28;19925;-85
2022/04/15 05:55:33;;;;;;;;;;;;;;;9.27;80.58;100857.00;5023456;28;20211;-85
2022/04/15 05:57:58;;;;;;;;;;;;;;;9.26;80.69;100856.16;5024803;28;19947;-85
2022/04/15 06:00:23;;;;;;;;;;;;;;;9.30;80.61;100867.41;5039217;28;19925;-85
2022/04/15 06:02:48;;;;;;;;;;;;;;;9.25;80.96;100870.84;5021531;28;19924;-87
2022/04/15 06:05:13;;;;;;;;;;;;;;;9.19;80.67;100875.28;5023199;28;19921;-85
2022/04/15 06:07:39;;;;;;;;;;;;;;;8.98;82.24;100868.44;5023067;28;19932;-85
2022/04/15 06:10:04;;;;;;;;;;;;;;;9.03;81.52;100878.66;5035841;28;19925;-85
2022/04/15 06:12:54;;;;;;;;;;;;;;;9.08;81.86;100881.50;5023007;28;19964;-86
2022/04/15 06:15:20;;;;;;;;;;;;;;;9.05;82.05;100887.41;5023837;28;20156;-85
2022/04/15 06:17:45;;;;;;;;;;;;;;;9.20;81.02;100893.28;5023976;28;19943;-85
2022/04/15 06:20:11;;;;;;;;;;;;;;;9.11;81.27;100897.38;5022977;28;20438;-86
2022/04/15 06:22:36;;;;;;;;;;;;;;;9.23;80.93;100900.97;5024422;28;19955;-85
2022/04/15 06:25:01;;;;;;;;;;;;;;;9.18;80.75;100911.72;5023086;28;19921;-85
2022/04/15 06:27:26;;;;;;;;;;;;;;;9.08;80.67;100909.53;5024950;28;20529;-86
2022/04/15 06:29:52;;;;;;;;;;;;;;;9.27;80.40;100906.81;5022021;28;20023;-86
2022/04/15 06:32:17;;;;;;;;;;;;;;;9.32;79.46;100914.28;5023524;28;19921;-85
2022/04/15 06:34:42;;;;;;;;;;;;;;;9.04;80.53;100918.38;5024357;28;19967;-86
2022/04/15 06:37:07;;;;;;;;;;;;;;;9.10;80.34;100922.91;5023971;28;19921;-86
2022/04/15 06:39:32;;;;;;;;;;;;;;;9.21;80.04;100919.44;5023395;28;19959;-84
2022/04/15 06:41:58;;;;;;;;;;;;;;;9.29;79.84;100925.63;5026242;28;19921;-85
2022/04/15 06:44:23;;;;;;;;;;;;;;;9.26;79.77;100931.53;5028484;28;19950;-85
2022/04/15 06:46:48;;;;;;;;;;;;;;;9.36;79.13;100920.94;5026129;28;20368;-85
2022/04/15 06:49:13;;;;;;;;;;;;;;;9.28;79.11;100932.97;5027886;28;19997;-84
2022/04/15 06:51:39;;;;;;;;;;;;;;;9.33;79.25;100932.28;5025933;28;19936;-85
2022/04/15 06:54:04;;;;;;;;;;;;;;;9.37;78.79;100936.22;5027223;28;19967;-85
2022/04/15 06:56:30;;;;;;;;;;;;;;;9.30;78.77;100930.00;5027375;28;19968;-85
2022/04/15 06:58:55;;;;;;;;;;;;;;;9.27;78.88;100938.63;5026540;28;20421;-85
2022/04/15 07:01:20;;;;;;;;;;;;;;;9.34;78.68;100936.66;5027088;28;19979;-86
2022/04/15 07:03:45;;;;;;;;;;;;;;;9.45;78.26;100938.63;5025715;28;20362;-86
2022/04/15 07:06:23;;;;;;;;;;;;;;;9.50;77.24;100934.41;5025916;28;19967;-85
2022/04/15 07:08:48;;;;;;;;;;;;;;;9.54;77.28;100936.41;5027443;28;19924;-85
2022/04/15 07:11:14;;;;;;;;;;;;;;;9.67;77.23;100938.16;5026972;28;20029;-86
2022/04/15 07:13:39;;;;;;;;;;;;;;;9.75;76.57;100942.44;5026637;28;19925;-85
2022/04/15 07:16:04;;;;;;;;;;;;;;;9.81;76.24;100943.41;5025512;28;19929;-84
2022/04/15 07:18:29;;;;;;;;;;;;;;;9.88;75.90;100951.50;5024579;28;19921;-85
2022/04/15 07:20:55;;;;;;;;;;;;;;;9.88;75.91;100955.06;5024704;28;19937;-86
2022/04/15 07:23:20;;;;;;;;;;;;;;;9.84;75.71;100953.84;5026837;28;19929;-86
2022/04/15 07:25:45;;;;;;;;;;;;;;;9.58;74.15;100950.41;5025795;28;19917;-85
2022/04/15 07:28:10;;;;;;;;;;;;;;;9.65;74.73;100956.59;5026424;28;20015;-85
2022/04/15 07:30:37;;;;;;;;;;;;;;;9.89;73.98;100967.59;5023828;28;19929;-85
2022/04/15 07:33:02;;;;;;;;;;;;;;;9.96;73.17;100961.22;5026262;28;19917;-84
2022/04/15 07:35:28;;;;;;;;;;;;;;;9.99;72.90;100966.19;5026246;28;19917;-85
2022/04/15 07:37:53;;;;;;;;;;;;;;;9.89;71.70;100970.31;5023718;28;19987;-84
2022/04/15 07:40:18;;;;;;;;;;;;;;;9.80;72.61;100969.81;5026790;28;19921;-85
2022/04/15 07:42:44;;;;;;;;;;;;;;;9.97;71.31;100973.78;5024062;28;20178;-84
2022/04/15 07:45:09;;;;;;;;;;;;;;;10.04;70.70;100975.38;5025675;28;20217;-84
2022/04/15 07:47:34;;;;;;;;;;;;;;;9.86;70.98;100978.97;5024741;28;19968;-85
2022/04/15 07:50:00;;;;;;;;;;;;;;;10.06;70.56;100975.13;5026948;28;20011;-85
2022/04/15 07:52:25;;;;;;;;;;;;;;;10.07;70.11;100974.06;5025344;28;20184;-85
2022/04/15 07:54:50;;;;;;;;;;;;;;;10.30;69.04;100964.28;5025607;28;19964;-84
2022/04/15 07:57:17;;;;;;;;;;;;;;;10.35;68.57;100972.59;5026938;28;19928;-85
2022/04/15 07:59:42;;;;;;;;;;;;;;;10.28;67.67;100963.69;5025270;28;19921;-85
2022/04/15 08:02:07;;;;;;;;;;;;;;;10.33;67.02;100961.09;5026354;28;19935;-85
2022/04/15 08:04:36;;;;;;;;;;;;;;;10.36;66.83;100966.09;5024661;28;20364;-84
2022/04/15 08:07:01;;;;;;;;;;;;;;;10.34;67.02;100962.75;5027065;28;20299;-85
2022/04/15 08:09:27;;;;;;;;;;;;;;;10.28;67.99;100970.00;5031306;28;19935;-83
2022/04/15 08:11:54;;;;;;;;;;;;;;;10.35;67.56;100967.13;5029825;28;19921;-85
2022/04/15 08:14:19;;;;;;;;;;;;;;;10.38;67.28;100971.31;5026505;28;19964;-85
2022/04/15 08:16:44;;;;;;;;;;;;;;;10.53;67.63;100973.63;5023161;28;19964;-84
2022/04/15 08:19:09;;;;;;;;;;;;;;;10.61;66.81;100967.81;5024786;28;19948;-85
2022/04/15 08:21:35;;;;;;;;;;;;;;;10.49;66.77;100980.59;5037517;28;19933;-86
2022/04/15 08:24:01;;;;;;;;;;;;;;;10.66;66.45;100964.38;5046077;28;19920;-85
2022/04/15 08:26:26;;;;;;;;;;;;;;;10.65;66.69;100962.72;5045275;28;20034;-84
2022/04/15 08:28:52;;;;;;;;;;;;;;;10.65;65.99;100968.19;5044564;28;20403;-86
2022/04/15 08:31:17;;;;;;;;;;;;;;;10.43;65.33;100971.44;5044051;28;19927;-86
2022/04/15 08:33:42;;;;;;;;;;;;;;;10.37;66.98;100978.63;5024566;28;20023;-85
2022/04/15 08:36:07;;;;;;;;;;;;;;;10.45;66.24;100974.78;5026249;28;20437;-86
2022/04/15 08:38:33;;;;;;;;;;;;;;;10.48;66.15;100968.00;5024364;28;19921;-86
2022/04/15 08:40:58;;;;;;;;;;;;;;;10.61;65.79;100978.72;5025909;28;19928;-86
2022/04/15 08:43:25;;;;;;;;;;;;;;;10.62;65.66;100983.09;5024548;28;19925;-84
2022/04/15 08:45:51;;;;;;;;;;;;;;;10.57;66.53;100976.69;5025888;28;19921;-85
2022/04/15 08:48:17;;;;;;;;;;;;;;;10.62;66.27;100979.53;5024172;28;19932;-85
2022/04/15 08:50:42;;;;;;;;;;;;;;;10.67;66.47;100976.97;5024708;28;19925;-85
2022/04/15 08:53:08;;;;;;;;;;;;;;;10.76;66.56;100976.63;5025980;28;19987;-85
2022/04/15 08:55:33;;;;;;;;;;;;;;;10.79;66.71;100979.69;5023721;28;19921;-84
2022/04/15 08:57:59;;;;;;;;;;;;;;;10.92;65.73;100988.72;5025643;28;19948;-85
2022/04/15 09:00:24;;;;;;;;;;;;;;;10.80;65.77;100986.78;5021964;28;19925;-85
2022/04/15 09:02:50;;;;;;;;;;;;;;;10.73;65.36;100992.38;5024602;28;20019;-85
2022/04/15 09:05:19;;;;;;;;;;;;;;;10.66;65.99;100996.28;5023317;28;19921;-85
2022/04/15 09:07:45;;;;;;;;;;;;;;;10.51;66.64;101000.28;5025354;28;19943;-84
2022/04/15 09:10:11;;;;;;;;;;;;;;;10.67;66.69;100998.78;5024906;28;19925;-84
2022/04/15 09:12:37;;;;;;;;;;;;;;;10.71;65.87;101005.44;5024600;28;19985;-85
2022/04/15 09:15:06;;;;;;;;;;;;;;;10.67;66.28;101009.69;5025697;28;19923;-84
2022/04/15 09:17:31;;;;;;;;;;;;;;;10.82;66.12;101014.66;5022862;28;19932;-85
2022/04/15 09:19:59;;;;;;;;;;;;;;;10.77;65.58;101013.72;5025653;28;19921;-86
2022/04/15 09:22:36;;;;;;;;;;;;;;;10.59;66.43;101007.31;5024353;28;19936;-85
2022/04/15 09:25:02;;;;;;;;;;;;;;;10.51;67.30;101013.94;5023559;28;19921;-86
2022/04/15 09:27:28;;;;;;;;;;;;;;;10.67;67.37;101017.88;5024795;28;19929;-85
2022/04/15 09:29:56;;;;;;;;;;;;;;;10.82;66.38;101019.31;5023993;28;19921;-84
2022/04/15 09:32:23;;;;;;;;;;;;;;;10.74;66.71;101026.75;5024457;28;20040;-85
2022/04/15 09:34:52;;;;;;;;;;;;;;;10.62;66.97;101034.94;5022015;28;19933;-85
2022/04/15 09:37:17;;;;;;;;;;;;;;;10.59;67.22;101034.56;5025124;28;19996;-84
2022/04/15 09:39:42;;;;;;;;;;;;;;;10.38;67.42;101031.28;5023796;28;20007;-86
2022/04/15 09:42:13;;;;;;;;;;;;;;;10.41;68.08;101032.72;5023320;28;20433;-85
2022/04/15 09:44:41;;;;;;;;;;;;;;;10.36;67.82;101036.97;5024309;28;19952;-86
2022/04/15 09:47:06;;;;;;;;;;;;;;;10.43;68.79;101031.44;5022552;28;19983;-86
2022/04/15 09:49:32;;;;;;;;;;;;;;;10.35;68.22;101039.94;5025209;28;19990;-85
2022/04/15 09:51:59;;;;;;;;;;;;;;;10.52;67.86;101040.13;5023132;28;19950;-85
2022/04/15 09:54:26;;;;;;;;;;;;;;;10.43;67.84;101046.94;5025193;28;19921;-86
2022/04/15 09:56:52;;;;;;;;;;;;;;;10.44;67.70;101038.53;5022964;28;19953;-85
2022/04/15 09:59:20;;;;;;;;;;;;;;;10.47;67.80;101037.25;5024775;28;19921;-84
2022/04/15 10:01:45;;;;;;;;;;;;;;;10.54;68.06;101043.44;5023813;28;19925;-85
2022/04/15 10:04:12;;;;;;;;;;;;;;;10.74;67.70;101039.56;5023969;28;19928;-84
2022/04/15 10:06:38;;;;;;;;;;;;;;;10.70;66.98;101047.38;5024469;28;19967;-85
2022/04/15 10:09:03;;;;;;;;;;;;;;;10.65;66.89;101039.09;5025350;28;19921;-85
2022/04/15 10:11:31;;;;;;;;;;;;;;;10.67;67.62;101044.31;5022087;28;19931;-85
2022/04/15 10:13:56;;;;;;;;;;;;;;;10.80;67.12;101051.47;5022156;28;19967;-85
2022/04/15 10:16:22;;;;;;;;;;;;;;;10.66;66.66;101039.94;5015274;28;19925;-85
2022/04/15 10:18:48;;;;;;;;;;;;;;;10.50;67.65;101042.25;5027803;28;20376;-86
2022/04/15 10:21:13;;;;;;;;;;;;;;;10.56;67.25;101045.94;5022933;28;19925;-84
2022/04/15 10:23:39;;;;;;;;;;;;;;;10.57;67.95;101043.00;5019800;28;19929;-85
2022/04/15 10:26:06;;;;;;;;;;;;;;;10.71;67.37;101045.50;5027035;28;19929;-84
2022/04/15 10:28:38;;;;;;;;;;;;;;;10.85;67.22;101046.94;5011714;28;19925;-85
2022/04/15 10:31:11;;;;;;;;;;;;;;;10.98;66.02;101036.88;5014566;28;19929;-85
2022/04/15 10:33:39;;;;;;;;;;;;;;;10.98;66.32;101043.16;5048874;28;19967;-85
2022/04/15 10:36:16;;;;;;;;;;;;;;;11.02;66.03;101031.78;5047754;28;20019;-85
2022/04/15 10:39:01;;;;;;;;;;;;;;;10.95;66.08;101042.81;5045889;28;20362;-85
2022/04/15 10:41:26;;;;;;;;;;;;;;;11.11;66.26;101040.44;5039472;28;19928;-85
2022/04/15 10:43:55;;;;;;;;;;;;;;;11.17;65.69;101040.31;5026485;28;20361;-86
2022/04/15 10:46:27;;;;;;;;;;;;;;;11.09;65.95;101046.97;5028188;28;20364;-85
2022/04/15 10:48:53;;;;;;;;;;;;;;;11.10;66.79;101039.63;5025926;28;20292;-85
2022/04/15 10:51:23;;;;;;;;;;;;;;;11.05;65.75;101036.75;5027260;28;20019;-85
2022/04/15 10:53:48;;;;;;;;;;;;;;;11.14;66.18;101034.50;5028009;28;20331;-85
2022/04/15 10:56:14;;;;;;;;;;;;;;;11.09;65.59;101043.41;5019897;28;19925;-85
2022/04/15 11:01:13;;;;;;;;;;;;;;;11.00;65.59;101045.66;5007093;28;20045;-85
2022/04/15 11:01:31;;;;;;;;;;;;;;;11.06;65.78;101044.72;5018410;28;19935;-84
2022/04/15 11:04:02;;;;;;;;;;;;;;;11.05;65.45;101047.66;5028415;28;19921;-85
2022/04/15 11:06:28;;;;;;;;;;;;;;;11.05;64.56;101042.22;5028102;28;20400;-85
2022/04/15 11:08:54;;;;;;;;;;;;;;;11.11;64.79;101045.88;5027335;28;19928;-85
2022/04/15 11:11:39;;;;;;;;;;;;;;;11.03;64.04;101050.63;5027612;28;19932;-86
2022/04/15 11:14:05;;;;;;;;;;;;;;;11.26;64.28;101048.16;5025510;28;19918;-83
2022/04/15 11:16:44;;;;;;;;;;;;;;;11.56;64.25;101052.63;5027594;28;19924;-84
2022/04/15 11:19:13;;;;;;;;;;;;;;;11.72;64.21;101045.59;5027544;28;20219;-85
2022/04/15 11:21:40;;;;;;;;;;;;;;;11.70;63.43;101046.91;5026615;28;19925;-85
2022/04/15 11:24:06;;;;;;;;;;;;;;;11.72;63.62;101051.06;5027745;28;20499;-84
2022/04/15 11:26:32;;;;;;;;;;;;;;;11.44;64.09;101045.31;5024290;28;19932;-86
2022/04/15 11:28:59;;;;;;;;;;;;;;;11.61;64.00;101041.84;5028007;28;19921;-86
2022/04/15 11:31:24;;;;;;;;;;;;;;;11.70;63.80;101039.53;5026464;28;20420;-84
2022/04/15 11:33:50;;;;;;;;;;;;;;;11.82;63.46;101049.63;5046125;28;20054;-85
2022/04/15 11:36:17;;;;;;;;;;;;;;;11.76;63.80;101048.66;5044204;28;19925;-84
2022/04/15 11:38:43;;;;;;;;;;;;;;;11.72;63.54;101040.13;5047038;28;19923;-85
2022/04/15 11:41:09;;;;;;;;;;;;;;;11.70;63.41;101042.28;5030601;28;19925;-85
2022/04/15 11:43:34;;;;;;;;;;;;;;;11.46;63.54;101045.06;5025802;28;20430;-84
2022/04/15 11:46:00;;;;;;;;;;;;;;;11.51;63.93;101056.06;5027381;28;19921;-84
2022/04/15 11:48:26;;;;;;;;;;;;;;;11.20;64.45;101050.78;5024172;28;20348;-85
2022/04/15 11:50:53;;;;;;;;;;;;;;;11.53;63.62;101047.66;5026533;28;21161;-85
2022/04/15 11:53:19;;;;;;;;;;;;;;;11.49;63.60;101057.41;5025988;28;20160;-85
2022/04/15 11:55:58;;;;;;;;;;;;;;;11.78;63.02;101044.63;5021368;28;20034;-85
2022/04/15 11:58:24;;;;;;;;;;;;;;;11.93;62.16;101050.66;5027014;28;20008;-85
2022/04/15 12:00:49;;;;;;;;;;;;;;;12.06;62.93;101053.09;5023622;28;20067;-85
2022/04/15 12:03:15;;;;;;;;;;;;;;;12.12;61.18;101043.94;5027109;28;19925;-86
2022/04/15 12:05:40;;;;;;;;;;;;;;;11.89;61.50;101051.16;5023636;28;19928;-85
2022/04/15 12:08:05;;;;;;;;;;;;;;;12.00;61.63;101052.16;5026727;28;20334;-85
2022/04/15 12:10:31;;;;;;;;;;;;;;;11.98;61.68;101050.78;5023023;28;19935;-86
2022/04/15 12:12:56;;;;;;;;;;;;;;;11.90;61.98;101051.97;5025790;28;20007;-85
2022/04/15 12:15:24;;;;;;;;;;;;;;;12.02;62.76;101054.69;5025678;28;20343;-85
2022/04/15 12:17:50;;;;;;;;;;;;;;;12.09;61.69;101049.88;5025270;28;19936;-86
2022/04/15 12:20:16;;;;;;;;;;;;;;;12.12;61.04;101054.09;5027086;28;19929;-85
2022/04/15 12:22:41;;;;;;;;;;;;;;;12.15;61.43;101048.13;5025250;28;19921;-84
2022/04/15 12:25:17;;;;;;;;;;;;;;;12.07;61.11;101056.66;5024941;28;19921;-85
2022/04/15 12:27:44;;;;;;;;;;;;;;;12.05;62.17;101054.19;5024032;28;19932;-85
2022/04/15 12:30:10;;;;;;;;;;;;;;;11.99;61.19;101052.41;5026196;28;20287;-85
2022/04/15 12:32:36;;;;;;;;;;;;;;;12.01;62.22;101062.03;5026381;28;19928;-85
2022/04/15 12:35:01;;;;;;;;;;;;;;;12.01;62.27;101061.22;5025731;28;19921;-85
2022/04/15 12:37:35;;;;;;;;;;;;;;;11.92;62.22;101055.28;5026128;28;19921;-85
2022/04/15 12:40:02;;;;;;;;;;;;;;;11.96;62.40;101061.13;5017222;28;19932;-86
2022/04/15 12:42:31;;;;;;;;;;;;;;;11.86;61.43;101062.56;5006078;28;19926;-85
2022/04/15 12:44:58;;;;;;;;;;;;;;;12.01;61.45;101053.84;5004710;28;20048;-85
2022/04/15 12:47:27;;;;;;;;;;;;;;;12.14;62.17;101060.13;5005437;28;19926;-85